West Corners, New York
Current Conditions -  °F | °C
As of 12:25 PM on Monday 22 Dec 2014 (Local Time) from KBGM Reporting Station
Overcast Overcast  
Wind Chill: -6°   Ceiling: 1300
Heat Index:   Visibility: 10mi
Dew Point: -3°   Wind: 14mph
Humidity: 79%   Direction: 170°S
Pressure: 30.17"   Gusts: NA
Location:  42.1332°N, 76.0798°W
Report Text: KBGM 221725Z 17012KT 10SM OVC013 00/M03 A3017 RMK AO2 T00001033
Loading
Personal Weather Stations






























Interactive Weather Map New forecast layout! Learn more

10-Day Weather Forecast

Advertisements
Track Severe Weather on mobile